METAR AND TAF INFORMATION
METAR FOR EDDL
ADDS - METARS form results

(0625 UTC 10 December 2018)
Data provider http://aviationweather.gov/metar/data/
 
METAR text: EDDL 100620Z 27009KT 9999 FEW035 05/03 Q1019 NOSIG
Conditions at: EDDL (DUESSELDORF , DE) observed 0620 UTC 10 December 2018
Temperature: 5.0°C (41°F)
Dewpoint: 3.0°C (37°F) [RH = 87%]
Pressure (altimeter): 30.09 inches Hg (1019.0 mb)
Winds: from the W (270 degrees) at 10 MPH (9 knots; 4.6 m/s)
Visibility: 6 or more miles (10+ km)
Ceiling: at least 12,000 feet AGL
Clouds: few clouds at 3500 feet AGL
Weather: no significant weather observed at this time

METAR text: EDDL 100550Z 27010KT 9999 -SHRA SCT017TCU BKN028 05/03 Q1019 NOSIG
Conditions at: EDDL (DUESSELDORF , DE) observed 0550 UTC 10 December 2018
Temperature: 5.0°C (41°F)
Dewpoint: 3.0°C (37°F) [RH = 87%]
Pressure (altimeter): 30.09 inches Hg (1019.0 mb)
Winds: from the W (270 degrees) at 12 MPH (10 knots; 5.1 m/s)
Visibility: 6 or more miles (10+ km)
Ceiling: 2800 feet AGL
Clouds: scattered clouds at 1700 feet AGL
broken clouds at 2800 feet AGL
Weather: -SHRA  (light rain showers)

Forecast for: EDDL (DUESSELDORF , DE)
Text: TAF EDDL 100500Z 1006/1112 27010KT 9999 SCT030
Forecast period: 0600 UTC 10 December 2018 to 1200 UTC 11 December 2018
Forecast type: FROM: standard forecast or significant change
Winds: from the W (270 degrees) at 12 MPH (10 knots; 5.1 m/s)
Visibility: 6 or more miles 10+ km)
Ceiling: at least 12,000 feet AGL
Clouds: scattered clouds at 3000 feet AGL
Weather: no significant weather forecast for this period
Text: PROB30
Forecast period: 1200 to 1500 UTC 10 December 2018
Forecast type: TEMPORARY: The following changes expected for less than half the time period
Winds: from the W (280 degrees) at 17 MPH (15 knots; 7.7 m/s)
gusting to 29 MPH (25 knots; 12.9 m/s)
Visibility: missing
Ceiling: 1500 feet AGL
Clouds: broken clouds at 1500 feet AGL
Weather: SHRA  (rain showers)

 AIRPORT MAP

 RUNWAY INFORMATION
Runway 05L Runway length 8858 ft Runway width 148 ft
Runway elevation 116 ft Runway displaced threshold 984 ft Runway heading 53
Runway 23R Runway length 8858 ft Runway width 148 ft
Runway elevation 124 ft Runway displaced threshold 984 ft Runway heading 233
Runway 05R Runway length 9842 ft Runway width 148 ft
Runway elevation 121 ft Runway displaced threshold 984 ft Runway heading 53
Runway 23L Runway length 9842 ft Runway width 148 ft
Runway elevation 138 ft Runway displaced threshold 984 ft Runway heading 233

 AIRPORT FREQUENCIES
Type ACC Name LANGEN RAD Frequency 128.55 MHZ
Type APP Name DIR Frequency 128.65 MHZ
Type ATIS Name ATIS Frequency 123.775 MHZ
Type CLD Name CLNC DEL Frequency 121.775 MHZ
Type GND Name GND Frequency 121.9 MHZ
Type INFO Name LANGEN INF Frequency 129.875 MHZ
Type MISC Name DE ICING Frequency 135.225 MHZ
Type TWR Name TWR Frequency 118.3 MHZ

 AIRPORT NEAR NAVIGATION AIDS
Type VOR-DME Name Dusseldorf Frequency 115150 KHZ



Powered by Virtual Airlines Manager [v2.6.2]